Time,TemperatureF,DewpointF,PressureIn,WindDirection,WindDirectionDegrees,WindSpeedMPH,WindSpeedGustMPH,Humidity,HourlyPrecipIn,Conditions,Clouds,dailyrainin,SoftwareType,DateUTC
2013-04-20 00:01:00,63.4,61.3,29.54,SSE,151,0.0,0.0,93,0.00,RA,SKC,0.00,WeatherDisplay:10.37,2013-04-20 04:01:00,
2013-04-20 00:02:00,63.4,61.3,29.54,SSE,151,0.0,0.0,93,0.00,RA,SKC,0.00,WeatherDisplay:10.37,2013-04-20 04:02:00,
2013-04-20 00:05:00,63.4,61.3,29.54,West,267,0.0,0.0,93,0.00,,SKC,0.00,WeatherDisplay:10.37,2013-04-20 04:05:00,
2013-04-20 00:06:00,63.2,61.1,29.54,West,263,0.0,0.0,93,0.00,,SKC,0.00,WeatherDisplay:10.37,2013-04-20 04:06:00,
2013-04-20 00:11:00,63.2,61.1,29.54,South,188,0.0,0.0,93,0.00,,SKC,0.00,WeatherDisplay:10.37,2013-04-20 04:11:00,
2013-04-20 00:15:00,63.2,61.1,29.54,South,181,0.0,0.0,93,0.00,,SKC,0.00,WeatherDisplay:10.37,2013-04-20 04:15:00,
2013-04-20 00:20:00,63.1,61.0,29.54,SE,138,0.0,0.0,93,0.00,,SKC,0.00,WeatherDisplay:10.37,2013-04-20 04:20:00,
2013-04-20 00:25:00,63.1,61.3,29.53,SE,140,0.0,0.0,94,0.55,RA,SKC,0.83,WeatherDisplay:10.37,2013-04-20 04:25:00,
2013-04-20 00:30:00,62.9,61.1,29.53,SE,140,0.0,0.0,94,1.71,RA,SKC,1.71,WeatherDisplay:10.37,2013-04-20 04:30:00,
2013-04-20 00:35:00,62.7,60.9,29.53,SE,141,1.1,1.1,94,2.98,RA,SKC,2.98,WeatherDisplay:10.37,2013-04-20 04:35:00,
2013-04-20 00:40:00,62.6,60.8,29.53,SSE,151,0.0,0.0,94,4.25,RA,SKC,4.25,WeatherDisplay:10.37,2013-04-20 04:40:00,
2013-04-20 00:45:00,62.6,60.8,29.54,SE,131,1.1,1.1,94,5.44,RA,SKC,5.44,WeatherDisplay:10.37,2013-04-20 04:45:00,
2013-04-20 00:50:00,62.4,60.7,29.54,SSE,148,0.0,0.0,94,5.43,,SKC,5.44,WeatherDisplay:10.37,2013-04-20 04:50:00,
2013-04-20 00:55:00,62.1,60.4,29.54,South,175,0.0,0.0,94,4.61,,SKC,5.44,WeatherDisplay:10.37,2013-04-20 04:55:00,
2013-04-20 01:00:00,62.1,60.4,29.54,South,188,3.5,3.5,94,5.44,,SKC,5.44,WeatherDisplay:10.37,2013-04-20 05:00:00,
2013-04-20 01:05:00,62.1,60.4,29.54,South,188,3.5,3.5,94,5.44,,SKC,5.44,WeatherDisplay:10.37,2013-04-20 05:05:00,
2013-04-20 01:10:00,61.6,59.9,29.54,SW,216,2.3,2.3,94,5.44,,SKC,5.44,WeatherDisplay:10.37,2013-04-20 05:10:00,
2013-04-20 01:15:00,61.3,59.6,29.54,SSW,206,0.0,0.0,94,5.44,,SKC,5.44,WeatherDisplay:10.37,2013-04-20 05:15:00,
2013-04-20 01:20:00,61.3,59.6,29.54,SSW,205,0.0,0.0,94,5.44,,SKC,5.44,WeatherDisplay:10.37,2013-04-20 05:20:00,
2013-04-20 01:25:00,61.0,59.6,29.54,WSW,243,0.0,0.0,95,4.89,,SKC,5.44,WeatherDisplay:10.37,2013-04-20 05:25:00,
2013-04-20 01:30:00,60.9,59.5,29.55,WSW,244,2.3,2.3,95,4.18,RA,SKC,5.89,WeatherDisplay:10.37,2013-04-20 05:30:00,
2013-04-20 01:35:00,60.5,58.8,29.56,SSE,161,8.1,8.1,94,3.30,RA,SKC,6.28,WeatherDisplay:10.37,2013-04-20 05:35:00,
2013-04-20 01:40:00,59.9,57.6,29.55,ESE,120,3.5,3.5,92,2.03,,SKC,6.28,WeatherDisplay:10.37,2013-04-20 05:40:00,
2013-04-20 01:45:00,59.5,56.9,29.54,South,172,1.1,0.0,91,0.84,,SKC,6.28,WeatherDisplay:10.37,2013-04-20 05:45:00,
2013-04-20 01:50:00,59.5,56.6,29.54,South,189,0.0,0.0,90,0.84,,SKC,6.28,WeatherDisplay:10.37,2013-04-20 05:50:00,
2013-04-20 01:55:00,59.0,55.4,29.54,SSW,212,4.6,4.6,88,0.84,,SKC,6.28,WeatherDisplay:10.37,2013-04-20 05:55:00,
2013-04-20 02:00:00,58.9,55.4,29.56,SW,222,0.0,0.0,88,0.85,RA,SKC,6.29,WeatherDisplay:10.37,2013-04-20 06:00:00,
2013-04-20 02:05:00,58.6,55.1,29.55,South,169,1.1,1.1,88,0.85,,SKC,6.29,WeatherDisplay:10.37,2013-04-20 06:05:00,
2013-04-20 02:10:00,58.6,55.1,29.52,East,95,5.8,5.8,88,0.85,,SKC,6.29,WeatherDisplay:10.37,2013-04-20 06:10:00,
2013-04-20 02:15:00,57.8,54.3,29.54,SE,145,3.5,3.5,88,0.85,,SKC,6.29,WeatherDisplay:10.37,2013-04-20 06:15:00,
2013-04-20 02:20:00,57.8,54.3,29.54,South,184,1.1,0.0,88,0.85,,SKC,6.29,WeatherDisplay:10.37,2013-04-20 06:20:00,
2013-04-20 02:25:00,57.8,54.3,29.54,South,184,0.0,0.0,88,0.85,,SKC,6.29,WeatherDisplay:10.37,2013-04-20 06:25:00,
2013-04-20 02:30:00,57.8,54.3,29.54,North,8,0.0,0.0,88,0.40,,SKC,6.29,WeatherDisplay:10.37,2013-04-20 06:30:00,
2013-04-20 02:35:00,57.8,54.3,29.54,North,0,0.0,0.0,88,0.01,,SKC,6.29,WeatherDisplay:10.37,2013-04-20 06:35:00,
2013-04-20 02:40:00,57.8,54.3,29.55,North,0,0.0,0.0,88,0.01,,SKC,6.29,WeatherDisplay:10.37,2013-04-20 06:40:00,
2013-04-20 02:45:00,57.8,54.3,29.58,North,0,0.0,0.0,88,0.01,,SKC,6.29,WeatherDisplay:10.37,2013-04-20 06:45:00,
2013-04-20 02:50:00,57.8,54.3,29.56,North,0,0.0,0.0,88,0.01,,SKC,6.29,WeatherDisplay:10.37,2013-04-20 06:50:00,
2013-04-20 02:55:00,57.8,54.3,29.55,North,0,0.0,0.0,88,0.01,,SKC,6.29,WeatherDisplay:10.37,2013-04-20 06:55:00,
2013-04-20 03:00:00,57.8,54.3,29.55,North,0,0.0,0.0,88,0.00,,SKC,6.29,WeatherDisplay:10.37,2013-04-20 07:00:00,
2013-04-20 03:05:00,55.6,51.8,29.56,NE,38,0.0,0.0,87,0.00,,SKC,6.29,WeatherDisplay:10.37,2013-04-20 07:05:00,
2013-04-20 03:10:00,55.6,51.8,29.54,NE,38,0.0,0.0,87,0.00,,SKC,6.29,WeatherDisplay:10.37,2013-04-20 07:10:00,
2013-04-20 03:15:00,54.7,50.9,29.54,NE,38,0.0,0.0,87,0.04,RA,SKC,6.33,WeatherDisplay:10.37,2013-04-20 07:15:00,
2013-04-20 03:20:00,53.9,50.1,29.54,NE,38,1.1,1.1,87,0.04,,SKC,6.33,WeatherDisplay:10.37,2013-04-20 07:20:00,
2013-04-20 03:25:00,53.5,49.4,29.55,NE,38,0.0,0.0,86,0.04,,SKC,6.33,WeatherDisplay:10.37,2013-04-20 07:25:00,
2013-04-20 03:30:00,53.3,49.2,29.55,NE,38,0.0,0.0,86,0.04,,SKC,6.33,WeatherDisplay:10.37,2013-04-20 07:30:00,
2013-04-20 03:35:00,52.3,48.2,29.54,NE,47,2.3,0.0,86,0.04,,SKC,6.33,WeatherDisplay:10.37,2013-04-20 07:35:00,
2013-04-20 03:40:00,51.9,47.8,29.56,North,359,1.1,1.1,86,0.04,,SKC,6.33,WeatherDisplay:10.37,2013-04-20 07:40:00,
2013-04-20 03:45:00,51.4,47.4,29.57,NW,308,0.0,0.0,86,0.42,RA,SKC,6.91,WeatherDisplay:10.37,2013-04-20 07:45:00,
2013-04-20 03:50:00,51.3,47.9,29.59,NW,308,0.0,0.0,88,1.63,RA,SKC,7.93,WeatherDisplay:10.37,2013-04-20 07:50:00,
2013-04-20 03:55:00,51.0,47.6,29.61,NW,309,2.3,0.0,88,1.65,RA,SKC,8.06,WeatherDisplay:10.37,2013-04-20 07:55:00,
2013-04-20 04:00:00,50.5,47.1,29.61,NNE,27,0.0,0.0,88,2.76,RA,SKC,9.25,WeatherDisplay:10.37,2013-04-20 08:00:00,
2013-04-20 04:05:00,50.5,47.1,29.59,NNE,27,0.0,0.0,88,3.76,RA,SKC,10.05,WeatherDisplay:10.37,2013-04-20 08:05:00,
2013-04-20 04:10:00,49.6,46.2,29.59,NNE,27,0.0,0.0,88,5.03,RA,SKC,11.64,WeatherDisplay:10.37,2013-04-20 08:10:00,
2013-04-20 04:15:00,49.2,45.8,29.59,NNE,27,0.0,0.0,88,6.10,RA,SKC,12.43,WeatherDisplay:10.37,2013-04-20 08:15:00,
2013-04-20 04:20:00,48.8,45.4,29.60,NNE,27,0.0,0.0,88,6.41,RA,SKC,12.74,WeatherDisplay:10.37,2013-04-20 08:20:00,
2013-04-20 04:25:00,48.3,44.9,29.59,NNE,27,0.0,0.0,88,7.33,RA,SKC,14.13,WeatherDisplay:10.37,2013-04-20 08:25:00,
2013-04-20 04:30:00,48.0,44.9,29.59,NNE,27,0.0,0.0,89,8.95,RA,SKC,15.28,WeatherDisplay:10.37,2013-04-20 08:30:00,
2013-04-20 04:35:00,47.7,44.6,29.59,NNE,27,0.0,0.0,89,10.11,RA,SKC,16.44,WeatherDisplay:10.37,2013-04-20 08:35:00,
2013-04-20 04:40:00,47.6,44.8,29.59,NNE,27,0.0,0.0,90,11.26,RA,SKC,17.71,WeatherDisplay:10.37,2013-04-20 08:40:00,
2013-04-20 04:45:00,47.4,44.6,29.61,NNE,27,0.0,0.0,90,11.91,RA,SKC,18.98,WeatherDisplay:10.37,2013-04-20 08:45:00,
2013-04-20 04:50:00,47.1,44.3,29.62,NNE,27,1.1,1.1,90,12.09,RA,SKC,20.01,WeatherDisplay:10.37,2013-04-20 08:50:00,
2013-04-20 04:55:00,47.0,44.5,29.62,NNE,27,0.0,0.0,91,13.31,RA,SKC,21.25,WeatherDisplay:10.37,2013-04-20 08:55:00,
2013-04-20 05:00:00,46.7,44.2,29.62,NNE,27,0.0,0.0,91,13.31,RA,SKC,22.52,WeatherDisplay:10.37,2013-04-20 09:00:00,
2013-04-20 05:05:00,46.5,44.0,29.63,NNE,27,0.0,0.0,91,13.46,RA,SKC,23.71,WeatherDisplay:10.37,2013-04-20 09:05:00,
2013-04-20 05:10:00,46.2,43.7,29.64,NNE,27,0.0,0.0,91,13.34,RA,SKC,24.86,WeatherDisplay:10.37,2013-04-20 09:10:00,
2013-04-20 05:15:00,46.2,43.7,29.64,NNE,27,0.0,0.0,91,13.58,RA,SKC,26.01,WeatherDisplay:10.37,2013-04-20 09:15:00,
2013-04-20 05:20:00,46.1,43.6,29.65,NNE,27,0.0,0.0,91,14.46,RA,SKC,27.20,WeatherDisplay:10.37,2013-04-20 09:20:00,
2013-04-20 05:25:00,46.0,43.8,29.65,NNE,27,0.0,0.0,92,14.73,RA,SKC,28.55,WeatherDisplay:10.37,2013-04-20 09:25:00,
2013-04-20 05:30:00,45.8,43.6,29.64,NNE,27,0.0,0.0,92,14.18,RA,SKC,29.62,WeatherDisplay:10.37,2013-04-20 09:30:00,
2013-04-20 05:35:00,45.7,43.5,29.64,NNE,27,0.0,0.0,92,14.29,RA,SKC,30.93,WeatherDisplay:10.37,2013-04-20 09:35:00,
2013-04-20 05:40:00,45.7,43.5,29.64,NNE,27,0.0,0.0,92,14.33,RA,SKC,32.04,WeatherDisplay:10.37,2013-04-20 09:40:00,
2013-04-20 05:45:00,45.5,43.3,29.65,NNE,27,0.0,0.0,92,14.37,RA,SKC,33.31,WeatherDisplay:10.37,2013-04-20 09:45:00,
2013-04-20 05:50:00,45.4,43.2,29.66,NNE,27,0.0,0.0,92,14.25,RA,SKC,34.26,WeatherDisplay:10.37,2013-04-20 09:50:00,
2013-04-20 05:55:00,45.2,43.0,29.67,NNE,27,0.0,0.0,92,14.25,RA,SKC,35.50,WeatherDisplay:10.37,2013-04-20 09:55:00,
2013-04-20 06:00:00,45.1,42.9,29.67,NNE,27,0.0,0.0,92,14.21,RA,SKC,36.80,WeatherDisplay:10.37,2013-04-20 10:00:00,
2013-04-20 06:05:00,44.9,42.7,29.68,NNE,27,0.0,0.0,92,14.29,RA,SKC,37.96,WeatherDisplay:10.37,2013-04-20 10:05:00,
2013-04-20 06:10:00,44.8,42.6,29.70,NNE,27,0.0,0.0,92,14.57,RA,SKC,39.19,WeatherDisplay:10.37,2013-04-20 10:10:00,
2013-04-20 06:15:00,44.6,42.4,29.70,NNE,27,0.0,0.0,92,14.49,RA,SKC,40.38,WeatherDisplay:10.37,2013-04-20 10:15:00,
2013-04-20 06:20:00,44.6,42.4,29.70,NNE,27,0.0,0.0,92,14.50,RA,SKC,41.42,WeatherDisplay:10.37,2013-04-20 10:20:00,
2013-04-20 06:25:00,44.5,42.3,29.70,NNE,27,0.0,0.0,92,14.46,RA,SKC,42.81,WeatherDisplay:10.37,2013-04-20 10:25:00,
2013-04-20 06:30:00,44.5,42.3,29.69,NNE,27,0.0,0.0,92,14.58,RA,SKC,43.84,WeatherDisplay:10.37,2013-04-20 10:30:00,
2013-04-20 06:35:00,44.3,42.4,29.70,NNE,27,0.0,0.0,93,14.57,RA,SKC,44.99,WeatherDisplay:10.37,2013-04-20 10:35:00,
2013-04-20 06:40:00,44.3,42.4,29.71,NNE,27,0.0,0.0,93,14.54,RA,SKC,46.26,WeatherDisplay:10.37,2013-04-20 10:40:00,
2013-04-20 06:45:00,44.3,42.4,29.71,NNE,27,0.0,0.0,93,14.53,RA,SKC,47.53,WeatherDisplay:10.37,2013-04-20 10:45:00,
2013-04-20 06:50:00,44.2,42.3,29.72,NNE,27,1.1,0.0,93,14.37,RA,SKC,48.68,WeatherDisplay:10.37,2013-04-20 10:50:00,
2013-04-20 06:55:00,44.2,42.3,29.72,NNE,27,0.0,0.0,93,14.45,RA,SKC,49.95,WeatherDisplay:10.37,2013-04-20 10:55:00,
2013-04-20 07:00:00,44.1,42.2,29.73,NNE,27,0.0,0.0,93,14.69,RA,SKC,51.02,WeatherDisplay:10.37,2013-04-20 11:00:00,
2013-04-20 07:05:00,43.9,41.7,29.74,NNE,27,0.0,0.0,92,14.53,RA,SKC,52.13,WeatherDisplay:10.37,2013-04-20 11:05:00,
2013-04-20 07:10:00,43.8,41.6,29.74,NNE,27,0.0,0.0,92,14.26,RA,SKC,53.44,WeatherDisplay:10.37,2013-04-20 11:10:00,
2013-04-20 07:15:00,43.6,41.7,29.73,NNE,27,0.0,0.0,93,14.45,RA,SKC,54.59,WeatherDisplay:10.37,2013-04-20 11:15:00,
2013-04-20 07:21:00,43.5,41.6,29.74,NNE,27,0.0,0.0,93,14.24,RA,SKC,56.10,WeatherDisplay:10.37,2013-04-20 11:21:00,
2013-04-20 07:26:00,43.6,41.7,29.74,NNE,27,0.0,0.0,93,14.13,RA,SKC,57.25,WeatherDisplay:10.37,2013-04-20 11:26:00,
2013-04-20 07:31:00,43.5,41.6,29.75,NNE,27,0.0,0.0,93,14.28,RA,SKC,58.40,WeatherDisplay:10.37,2013-04-20 11:31:00,
2013-04-20 07:36:00,43.5,41.6,29.75,NNE,27,0.0,0.0,93,14.49,RA,SKC,59.48,WeatherDisplay:10.37,2013-04-20 11:36:00,
2013-04-20 07:41:00,43.6,41.7,29.75,NNE,27,1.1,0.0,93,14.33,RA,SKC,60.87,WeatherDisplay:10.37,2013-04-20 11:41:00,
2013-04-20 07:46:00,43.6,42.0,29.74,NNE,27,0.0,0.0,94,14.21,RA,SKC,61.90,WeatherDisplay:10.37,2013-04-20 11:46:00,
2013-04-20 07:51:00,43.6,42.0,29.75,NNE,27,0.0,0.0,94,14.29,RA,SKC,63.13,WeatherDisplay:10.37,2013-04-20 11:51:00,
2013-04-20 07:56:00,43.8,42.2,29.75,NNE,27,0.0,0.0,94,14.33,RA,SKC,64.28,WeatherDisplay:10.37,2013-04-20 11:56:00,
2013-04-20 08:01:00,43.8,42.2,29.74,NNE,27,0.0,0.0,94,14.53,RA,SKC,65.55,WeatherDisplay:10.37,2013-04-20 12:01:00,
2013-04-20 08:06:00,43.9,42.3,29.74,NNE,27,0.0,0.0,94,14.21,RA,SKC,66.86,WeatherDisplay:10.37,2013-04-20 12:06:00,
2013-04-20 08:11:00,43.9,42.3,29.74,NNE,27,0.0,0.0,94,14.33,RA,SKC,68.01,WeatherDisplay:10.37,2013-04-20 12:11:00,
2013-04-20 08:16:00,43.9,42.3,29.74,NNE,27,0.0,0.0,94,14.37,RA,SKC,69.16,WeatherDisplay:10.37,2013-04-20 12:16:00,
2013-04-20 08:21:00,43.9,42.3,29.74,NNE,27,0.0,0.0,94,14.21,RA,SKC,70.11,WeatherDisplay:10.37,2013-04-20 12:21:00,
2013-04-20 08:26:00,43.9,42.3,29.75,NNE,27,0.0,0.0,94,13.93,RA,SKC,70.99,WeatherDisplay:10.37,2013-04-20 12:26:00,
2013-04-20 08:31:00,44.1,42.5,29.75,NNE,27,0.0,0.0,94,12.74,RA,SKC,71.14,WeatherDisplay:10.37,2013-04-20 12:31:00,
2013-04-20 08:36:00,44.1,42.5,29.74,NNE,27,0.0,0.0,94,12.93,RA,SKC,72.41,WeatherDisplay:10.37,2013-04-20 12:36:00,
2013-04-20 08:41:00,44.2,42.3,29.75,NNE,27,0.0,0.0,93,12.98,RA,SKC,73.57,WeatherDisplay:10.37,2013-04-20 12:41:00,
2013-04-20 08:46:00,44.5,42.6,29.74,NNE,27,0.0,0.0,93,11.91,RA,SKC,74.08,WeatherDisplay:10.37,2013-04-20 12:46:00,
2013-04-20 08:51:00,44.6,42.7,29.74,NNE,27,0.0,0.0,93,11.95,RA,SKC,75.08,WeatherDisplay:10.37,2013-04-20 12:51:00,
2013-04-20 08:56:00,44.6,42.7,29.74,NNE,27,0.0,0.0,93,11.11,RA,SKC,75.39,WeatherDisplay:10.37,2013-04-20 12:56:00,
2013-04-20 09:01:00,44.6,42.7,29.74,NNE,27,0.0,0.0,93,9.84,,SKC,75.39,WeatherDisplay:10.37,2013-04-20 13:01:00,
2013-04-20 09:06:00,44.6,42.7,29.74,North,0,0.0,0.0,93,8.77,,SKC,75.39,WeatherDisplay:10.37,2013-04-20 13:06:00,
2013-04-20 09:11:00,44.6,42.7,29.73,North,0,0.0,0.0,93,7.62,,SKC,75.39,WeatherDisplay:10.37,2013-04-20 13:11:00,
2013-04-20 09:16:00,44.6,42.7,29.73,North,0,0.0,0.0,93,6.43,,SKC,75.39,WeatherDisplay:10.37,2013-04-20 13:16:00,
2013-04-20 09:21:00,44.6,42.7,29.73,North,0,0.0,0.0,93,5.28,,SKC,75.39,WeatherDisplay:10.37,2013-04-20 13:21:00,
2013-04-20 09:26:00,44.6,42.7,29.73,North,0,0.0,0.0,93,4.40,,SKC,75.39,WeatherDisplay:10.37,2013-04-20 13:26:00,
2013-04-20 09:31:00,44.6,42.7,29.73,North,0,0.0,0.0,93,4.25,,SKC,75.39,WeatherDisplay:10.37,2013-04-20 13:31:00,
2013-04-20 09:36:00,44.6,42.7,29.73,North,0,0.0,0.0,93,2.98,,SKC,75.39,WeatherDisplay:10.37,2013-04-20 13:36:00,
2013-04-20 09:41:00,47.9,46.0,29.73,NW,320,5.0,5.0,93,1.82,,SKC,75.39,WeatherDisplay:10.37,2013-04-20 13:41:00,
2013-04-20 09:46:00,48.6,41.4,29.74,WSW,258,2.0,2.0,76,1.58,,SKC,76.02,WeatherDisplay:10.37,2013-04-20 13:46:00,
2013-04-20 09:51:00,48.9,41.7,29.74,East,95,5.8,5.8,76,1.14,RA,SKC,76.22,WeatherDisplay:10.37,2013-04-20 13:51:00,
2013-04-20 09:56:00,49.4,40.4,29.74,SSW,199,7.0,7.0,71,1.74,RA,SKC,77.13,WeatherDisplay:10.37,2013-04-20 13:56:00,
2013-04-20 10:01:00,49.8,40.4,29.75,NW,305,1.1,0.0,70,2.06,RA,SKC,77.45,WeatherDisplay:10.37,2013-04-20 14:01:00,
2013-04-20 10:06:00,50.4,41.0,29.75,ENE,72,5.8,5.8,70,2.06,,SKC,77.45,WeatherDisplay:10.37,2013-04-20 14:06:00,
2013-04-20 10:11:00,50.5,38.8,29.75,SE,136,2.3,2.3,64,3.37,RA,SKC,78.99,WeatherDisplay:10.37,2013-04-20 14:11:00,
2013-04-20 10:16:00,50.8,39.8,29.76,NW,313,3.5,0.0,66,4.16,RA,SKC,79.55,WeatherDisplay:10.37,2013-04-20 14:16:00,
2013-04-20 10:21:00,51.1,38.5,29.77,SSE,165,6.9,6.9,62,4.60,RA,SKC,79.99,WeatherDisplay:10.37,2013-04-20 14:21:00,
2013-04-20 10:26:00,51.3,37.9,29.77,SSE,147,2.3,0.0,60,5.07,RA,SKC,80.46,WeatherDisplay:10.37,2013-04-20 14:26:00,
2013-04-20 10:31:00,51.7,38.3,29.77,ESE,107,13.8,13.8,60,5.87,RA,SKC,81.26,WeatherDisplay:10.37,2013-04-20 14:31:00,
2013-04-20 10:36:00,52.0,38.5,29.77,ESE,114,5.0,5.0,60,7.02,RA,SKC,82.61,WeatherDisplay:10.37,2013-04-20 14:36:00,
2013-04-20 10:41:00,52.2,38.3,29.77,SSE,152,3.5,3.5,59,8.29,RA,SKC,83.68,WeatherDisplay:10.37,2013-04-20 14:41:00,
2013-04-20 10:46:00,52.3,38.4,29.78,ENE,58,4.6,4.6,59,9.32,RA,SKC,84.99,WeatherDisplay:10.37,2013-04-20 14:46:00,
2013-04-20 10:51:00,52.6,38.7,29.78,West,263,10.4,10.4,59,9.40,RA,SKC,85.62,WeatherDisplay:10.37,2013-04-20 14:51:00,
2013-04-20 10:56:00,52.6,36.9,29.79,East,86,5.0,5.0,55,9.29,RA,SKC,86.42,WeatherDisplay:10.37,2013-04-20 14:56:00,
2013-04-20 11:01:00,52.6,36.9,29.79,SW,229,5.8,5.8,55,8.97,,SKC,86.42,WeatherDisplay:10.37,2013-04-20 15:01:00,
2013-04-20 11:06:00,52.8,36.6,29.79,SSE,154,7.0,7.0,54,8.97,,SKC,86.70,WeatherDisplay:10.37,2013-04-20 15:06:00,
2013-04-20 11:11:00,52.8,36.1,29.79,ENE,68,6.9,6.9,53,7.94,RA,SKC,86.70,WeatherDisplay:10.37,2013-04-20 15:11:00,
2013-04-20 11:16:00,52.9,35.2,29.79,SE,144,6.9,6.9,51,7.15,,SKC,86.70,WeatherDisplay:10.37,2013-04-20 15:16:00,
2013-04-20 11:21:00,52.9,35.2,29.79,NNW,347,0.0,0.0,51,6.71,,SKC,86.70,WeatherDisplay:10.37,2013-04-20 15:21:00,
2013-04-20 11:26:00,53.1,32.8,29.80,SSE,157,8.1,8.1,46,6.52,RA,SKC,86.98,WeatherDisplay:10.37,2013-04-20 15:26:00,
2013-04-20 11:31:00,53.1,32.8,29.80,SSE,148,3.0,3.0,46,6.16,RA,SKC,87.42,WeatherDisplay:10.37,2013-04-20 15:31:00,
2013-04-20 11:36:00,53.2,32.9,29.80,NNW,328,0.0,0.0,46,5.01,,SKC,87.42,WeatherDisplay:10.37,2013-04-20 15:36:00,
2013-04-20 11:41:00,53.3,32.5,29.80,SE,128,6.9,0.0,45,3.74,,SKC,87.42,WeatherDisplay:10.37,2013-04-20 15:41:00,
2013-04-20 11:47:00,53.3,34.1,29.81,WSW,258,6.9,6.9,48,2.43,,SKC,87.42,WeatherDisplay:10.37,2013-04-20 15:47:00,
2013-04-20 11:52:00,53.3,34.1,29.80,NNE,17,3.5,3.5,48,2.48,RA,SKC,88.10,WeatherDisplay:10.37,2013-04-20 15:52:00,
2013-04-20 11:57:00,53.3,34.1,29.81,SE,124,2.3,2.3,48,1.84,RA,SKC,88.26,WeatherDisplay:10.37,2013-04-20 15:57:00,
2013-04-20 12:02:00,53.5,34.3,29.81,SSE,148,6.0,6.0,48,1.84,,SKC,88.26,WeatherDisplay:10.37,2013-04-20 16:02:00,
2013-04-20 12:07:00,53.5,34.3,29.80,West,280,3.5,3.5,48,1.56,,SKC,88.26,WeatherDisplay:10.37,2013-04-20 16:07:00,
2013-04-20 12:12:00,53.8,32.4,29.81,South,184,5.8,5.8,44,2.27,RA,SKC,88.97,WeatherDisplay:10.37,2013-04-20 16:12:00,
2013-04-20 12:17:00,53.9,32.5,29.81,SSE,155,11.0,11.0,44,2.71,RA,SKC,89.41,WeatherDisplay:10.37,2013-04-20 16:17:00,
2013-04-20 12:22:00,53.9,30.7,29.81,SSW,196,6.0,6.0,41,2.71,,SKC,89.41,WeatherDisplay:10.37,2013-04-20 16:22:00,
2013-04-20 12:27:00,53.8,30.6,29.81,SSE,152,6.0,6.0,41,3.54,RA,SKC,90.52,WeatherDisplay:10.37,2013-04-20 16:27:00,
2013-04-20 12:32:00,53.8,31.2,29.81,SW,232,10.4,10.4,42,3.10,,SKC,90.52,WeatherDisplay:10.37,2013-04-20 16:32:00,
2013-04-20 12:37:00,53.8,31.2,29.81,SSW,210,8.1,8.1,42,3.10,,SKC,90.52,WeatherDisplay:10.37,2013-04-20 16:37:00,
2013-04-20 12:42:00,53.8,31.8,29.81,East,86,3.5,3.5,43,4.01,RA,SKC,91.43,WeatherDisplay:10.37,2013-04-20 16:42:00,
2013-04-20 12:47:00,53.8,31.8,29.81,SE,133,4.6,4.6,43,4.01,,SKC,91.91,WeatherDisplay:10.37,2013-04-20 16:47:00,
2013-04-20 12:52:00,53.8,30.6,29.81,West,278,5.0,5.0,41,4.33,RA,SKC,92.43,WeatherDisplay:10.37,2013-04-20 16:52:00,
2013-04-20 12:57:00,53.8,30.6,29.81,SSE,157,4.6,4.6,41,5.79,RA,SKC,94.21,WeatherDisplay:10.37,2013-04-20 16:57:00,
2013-04-20 13:02:00,53.8,30.6,29.81,NNW,332,3.5,3.5,41,6.95,RA,SKC,95.48,WeatherDisplay:10.37,2013-04-20 17:02:00,
2013-04-20 13:07:00,53.6,30.4,29.81,North,357,4.6,4.6,41,8.14,RA,SKC,96.55,WeatherDisplay:10.37,2013-04-20 17:07:00,
2013-04-20 13:12:00,53.6,31.0,29.81,ENE,61,3.5,3.5,42,8.50,RA,SKC,97.47,WeatherDisplay:10.37,2013-04-20 17:12:00,
2013-04-20 13:17:00,53.6,29.2,29.81,ENE,71,3.5,3.5,39,9.45,RA,SKC,98.98,WeatherDisplay:10.37,2013-04-20 17:17:00,
2013-04-20 13:22:00,53.6,31.0,29.81,North,10,5.8,5.8,42,10.64,RA,SKC,99.99,WeatherDisplay:10.37,2013-04-20 17:22:00,
2013-04-20 13:27:00,53.5,29.7,29.81,ESE,109,5.0,5.0,40,10.68,RA,SKC,99.99,WeatherDisplay:10.37,2013-04-20 17:27:00,
2013-04-20 13:32:00,53.5,31.5,29.81,East,97,2.3,0.0,43,11.91,RA,SKC,99.99,WeatherDisplay:10.37,2013-04-20 17:32:00,
2013-04-20 13:37:00,53.6,32.2,29.81,South,169,2.3,2.3,44,13.06,RA,SKC,99.99,WeatherDisplay:10.37,2013-04-20 17:37:00,
2013-04-20 13:42:00,53.6,29.2,29.81,WSW,253,11.5,11.5,39,12.31,RA,SKC,99.99,WeatherDisplay:10.37,2013-04-20 17:42:00,
2013-04-20 13:47:00,53.6,31.0,29.81,North,0,5.0,5.0,42,13.26,RA,SKC,99.99,WeatherDisplay:10.37,2013-04-20 17:47:00,
2013-04-20 13:52:00,53.8,30.6,29.81,East,92,2.3,2.3,41,12.70,RA,SKC,99.99,WeatherDisplay:10.37,2013-04-20 17:52:00,
2013-04-20 13:57:00,53.9,31.9,29.81,NNW,343,10.4,10.4,43,11.99,RA,SKC,99.99,WeatherDisplay:10.37,2013-04-20 17:57:00,
2013-04-20 14:02:00,54.4,31.8,29.81,North,6,3.5,3.5,42,11.94,RA,SKC,99.99,WeatherDisplay:10.37,2013-04-20 18:02:00,
2013-04-20 14:07:00,54.7,31.4,29.81,North,352,11.5,11.5,41,11.63,RA,SKC,99.99,WeatherDisplay:10.37,2013-04-20 18:07:00,
2013-04-20 14:12:00,55.1,31.8,29.81,NNW,329,5.8,5.8,41,10.56,,SKC,99.99,WeatherDisplay:10.37,2013-04-20 18:12:00,
2013-04-20 14:17:00,55.6,32.2,29.81,North,359,0.0,0.0,41,9.17,,SKC,99.99,WeatherDisplay:10.37,2013-04-20 18:17:00,
2013-04-20 14:22:00,55.9,32.5,29.81,East,93,0.0,0.0,41,8.22,,SKC,99.99,WeatherDisplay:10.37,2013-04-20 18:22:00,
2013-04-20 14:27:00,56.2,32.2,29.81,NNE,28,11.5,11.5,40,7.07,,SKC,99.99,WeatherDisplay:10.37,2013-04-20 18:27:00,
2013-04-20 14:32:00,56.0,32.0,29.81,NE,54,0.0,0.0,40,5.84,,SKC,99.99,WeatherDisplay:10.37,2013-04-20 18:32:00,
2013-04-20 14:37:00,56.0,32.0,29.81,NE,34,0.0,0.0,40,4.69,,SKC,99.99,WeatherDisplay:10.37,2013-04-20 18:37:00,
2013-04-20 14:42:00,55.9,31.9,29.81,WNW,298,4.0,4.0,40,4.29,,SKC,99.99,WeatherDisplay:10.37,2013-04-20 18:42:00,
2013-04-20 14:47:00,56.0,32.0,29.81,WNW,295,4.0,4.0,40,3.34,,SKC,99.99,WeatherDisplay:10.37,2013-04-20 18:47:00,
2013-04-20 14:52:00,56.0,32.0,29.81,NW,309,2.3,2.3,40,2.90,,SKC,99.99,WeatherDisplay:10.37,2013-04-20 18:52:00,
2013-04-20 14:57:00,56.0,32.0,29.81,SSW,198,5.0,5.0,40,2.35,,SKC,99.99,WeatherDisplay:10.37,2013-04-20 18:57:00,
2013-04-20 15:02:00,56.5,32.4,29.81,West,278,4.6,4.6,40,1.23,,SKC,99.99,WeatherDisplay:10.37,2013-04-20 19:02:00,
2013-04-20 15:07:00,56.5,32.4,29.81,North,357,3.5,3.5,40,0.00,,SKC,99.99,WeatherDisplay:10.37,2013-04-20 19:07:00,
2013-04-20 15:12:00,56.7,32.6,29.81,ENE,61,1.1,1.1,40,1.23,RA,SKC,99.99,WeatherDisplay:10.37,2013-04-20 19:12:00,
2013-04-20 15:17:00,57.0,31.6,29.81,WNW,302,11.5,11.5,38,1.66,RA,SKC,99.99,WeatherDisplay:10.37,2013-04-20 19:17:00,
2013-04-20 15:22:00,57.0,31.6,29.82,NNE,20,0.0,0.0,38,1.66,,SKC,99.99,WeatherDisplay:10.37,2013-04-20 19:22:00,
2013-04-20 15:27:00,57.2,31.8,29.81,West,267,5.0,5.0,38,1.66,,SKC,99.99,WeatherDisplay:10.37,2013-04-20 19:27:00,
2013-04-20 15:32:00,57.3,31.9,29.82,North,6,3.5,3.5,38,2.22,RA,SKC,99.99,WeatherDisplay:10.37,2013-04-20 19:32:00,
2013-04-20 15:37:00,57.3,31.9,29.81,NW,312,2.3,0.0,38,2.22,,SKC,99.99,WeatherDisplay:10.37,2013-04-20 19:37:00,
2013-04-20 15:42:00,57.5,30.7,29.82,ENE,78,2.3,2.3,36,2.22,,SKC,99.99,WeatherDisplay:10.37,2013-04-20 19:42:00,
2013-04-20 15:47:00,58.0,31.2,29.82,WNW,296,6.0,6.0,36,2.22,,SKC,99.99,WeatherDisplay:10.37,2013-04-20 19:47:00,
2013-04-20 15:52:00,58.0,31.2,29.82,SSE,147,3.5,3.5,36,2.22,,SKC,99.99,WeatherDisplay:10.37,2013-04-20 19:52:00,
2013-04-20 15:57:00,58.0,31.2,29.82,West,265,0.0,0.0,36,2.55,RA,SKC,99.99,WeatherDisplay:10.37,2013-04-20 19:57:00,
2013-04-20 16:02:00,58.3,30.0,29.82,NW,318,7.0,7.0,34,2.79,RA,SKC,99.99,WeatherDisplay:10.37,2013-04-20 20:02:00,
2013-04-20 16:07:00,58.4,28.6,29.83,NW,304,6.0,6.0,32,3.62,RA,SKC,99.99,WeatherDisplay:10.37,2013-04-20 20:07:00,
2013-04-20 16:12:00,58.6,28.8,29.83,WNW,294,5.8,5.8,32,2.39,,SKC,99.99,WeatherDisplay:10.37,2013-04-20 20:12:00,
2013-04-20 16:17:00,58.6,29.6,29.83,NNW,330,7.0,7.0,33,2.68,RA,SKC,99.99,WeatherDisplay:10.37,2013-04-20 20:17:00,
2013-04-20 16:22:00,58.3,27.8,29.84,NE,56,8.1,8.1,31,2.68,,SKC,99.99,WeatherDisplay:10.37,2013-04-20 20:22:00,
2013-04-20 16:27:00,58.3,29.3,29.84,NNE,21,1.1,0.0,33,2.68,,SKC,99.99,WeatherDisplay:10.37,2013-04-20 20:27:00,
2013-04-20 16:32:00,58.6,28.0,29.84,SSW,200,12.0,0.0,31,2.12,,SKC,99.99,WeatherDisplay:10.37,2013-04-20 20:32:00,
2013-04-20 16:37:00,58.6,28.0,29.84,SSW,208,19.6,19.6,31,3.03,RA,SKC,99.99,WeatherDisplay:10.37,2013-04-20 20:37:00,
2013-04-20 16:42:00,58.4,27.1,29.85,SSW,206,11.5,11.5,30,4.42,RA,SKC,99.99,WeatherDisplay:10.37,2013-04-20 20:42:00,
2013-04-20 16:47:00,58.3,27.0,29.85,South,186,2.3,2.3,30,5.10,RA,SKC,99.99,WeatherDisplay:10.37,2013-04-20 20:47:00,
2013-04-20 16:52:00,58.3,27.0,29.85,WNW,284,6.9,6.9,30,5.22,RA,SKC,99.99,WeatherDisplay:10.37,2013-04-20 20:52:00,
2013-04-20 16:57:00,58.3,27.8,29.86,ENE,65,10.4,10.4,31,4.89,,SKC,99.99,WeatherDisplay:10.37,2013-04-20 20:57:00,
2013-04-20 17:02:00,58.3,27.0,29.86,NNW,330,3.5,3.5,30,5.33,RA,SKC,99.99,WeatherDisplay:10.37,2013-04-20 21:02:00,
2013-04-20 17:07:00,58.3,27.0,29.86,East,79,5.0,5.0,30,4.26,,SKC,99.99,WeatherDisplay:10.37,2013-04-20 21:07:00,
2013-04-20 17:12:00,58.3,27.0,29.86,ENE,69,2.3,2.3,30,4.73,RA,SKC,99.99,WeatherDisplay:10.37,2013-04-20 21:12:00,
2013-04-20 17:17:00,58.4,30.1,29.86,WSW,248,0.0,0.0,34,4.29,RA,SKC,99.99,WeatherDisplay:10.37,2013-04-20 21:17:00,
2013-04-20 17:22:00,58.4,27.1,29.87,North,357,9.2,9.2,30,4.73,RA,SKC,99.99,WeatherDisplay:10.37,2013-04-20 21:22:00,
2013-04-20 17:27:00,58.3,27.0,29.87,WSW,247,4.6,4.6,30,4.73,,SKC,99.99,WeatherDisplay:10.37,2013-04-20 21:27:00,
2013-04-20 17:32:00,57.8,26.5,29.87,NNE,24,1.1,1.1,30,4.73,,SKC,99.99,WeatherDisplay:10.37,2013-04-20 21:32:00,
2013-04-20 17:37:00,57.6,26.4,29.88,North,0,5.0,5.0,30,3.82,,SKC,99.99,WeatherDisplay:10.37,2013-04-20 21:37:00,
2013-04-20 17:42:00,57.3,26.1,29.87,NE,41,0.0,0.0,30,2.79,,SKC,99.99,WeatherDisplay:10.37,2013-04-20 21:42:00,
2013-04-20 17:47:00,57.3,27.7,29.88,SE,128,2.3,2.3,32,1.75,,SKC,99.99,WeatherDisplay:10.37,2013-04-20 21:47:00,
2013-04-20 17:52:00,57.3,27.7,29.88,North,4,1.1,1.1,32,1.63,,SKC,99.99,WeatherDisplay:10.37,2013-04-20 21:52:00,
2013-04-20 17:57:00,57.3,27.7,29.88,North,4,1.1,1.1,32,1.63,,SKC,99.99,WeatherDisplay:10.37,2013-04-20 21:57:00,
2013-04-20 18:02:00,57.3,27.7,29.89,NNE,32,1.1,0.0,32,1.19,,SKC,99.99,WeatherDisplay:10.37,2013-04-20 22:02:00,
2013-04-20 18:07:00,57.3,27.7,29.89,East,83,1.1,1.1,32,1.19,,SKC,99.99,WeatherDisplay:10.37,2013-04-20 22:07:00,
2013-04-20 18:12:00,57.2,28.3,29.90,NNE,31,5.0,5.0,33,0.72,,SKC,99.99,WeatherDisplay:10.37,2013-04-20 22:12:00,
2013-04-20 18:17:00,56.9,28.1,29.90,NE,34,1.1,1.1,33,0.44,,SKC,99.99,WeatherDisplay:10.37,2013-04-20 22:17:00,
2013-04-20 18:22:00,56.9,26.5,29.89,ENE,78,0.0,0.0,31,0.28,,SKC,99.99,WeatherDisplay:10.37,2013-04-20 22:22:00,
2013-04-20 18:27:00,56.9,26.5,29.90,South,171,1.1,0.0,31,0.00,,SKC,99.99,WeatherDisplay:10.37,2013-04-20 22:27:00,
2013-04-20 18:32:00,56.7,28.6,29.90,West,263,3.0,3.0,34,0.00,,SKC,99.99,WeatherDisplay:10.37,2013-04-20 22:32:00,
2013-04-20 18:37:00,56.7,28.6,29.91,SSW,210,1.1,1.1,34,0.00,,SKC,99.99,WeatherDisplay:10.37,2013-04-20 22:37:00,
2013-04-20 18:42:00,56.7,28.6,29.91,SSW,200,1.1,0.0,34,0.00,,SKC,99.99,WeatherDisplay:10.37,2013-04-20 22:42:00,
2013-04-20 18:47:00,56.7,28.6,29.91,SSW,202,0.0,0.0,34,0.00,,SKC,99.99,WeatherDisplay:10.37,2013-04-20 22:47:00,
2013-04-20 18:52:00,56.3,27.5,29.91,SSW,202,0.0,0.0,33,0.00,,SKC,99.99,WeatherDisplay:10.37,2013-04-20 22:52:00,
2013-04-20 18:57:00,56.2,27.4,29.92,SSW,202,2.0,2.0,33,0.00,,SKC,99.99,WeatherDisplay:10.37,2013-04-20 22:57:00,
2013-04-20 19:02:00,56.2,27.4,29.92,NNW,328,3.5,3.5,33,0.00,,SKC,99.99,WeatherDisplay:10.37,2013-04-20 23:02:00,
2013-04-20 19:07:00,56.2,27.4,29.92,NNW,328,0.0,0.0,33,0.00,,SKC,99.99,WeatherDisplay:10.37,2013-04-20 23:07:00,
2013-04-20 19:12:00,56.2,27.4,29.92,NNW,328,0.0,0.0,33,0.52,RA,SKC,99.99,WeatherDisplay:10.37,2013-04-20 23:12:00,
2013-04-20 19:17:00,56.2,27.4,29.93,NNW,328,0.0,0.0,33,0.52,,SKC,99.99,WeatherDisplay:10.37,2013-04-20 23:17:00,
2013-04-20 19:22:00,55.7,27.0,29.93,NNW,337,0.0,0.0,33,0.52,,SKC,99.99,WeatherDisplay:10.37,2013-04-20 23:22:00,
2013-04-20 19:27:00,55.4,26.7,29.94,WNW,295,2.3,2.3,33,0.52,,SKC,99.99,WeatherDisplay:10.37,2013-04-20 23:27:00,
2013-04-20 19:32:00,55.3,26.7,29.94,NW,325,3.5,3.5,33,1.07,RA,SKC,99.99,WeatherDisplay:10.37,2013-04-20 23:32:00,
2013-04-20 19:37:00,55.3,26.7,29.94,West,280,0.0,0.0,33,1.31,RA,SKC,99.99,WeatherDisplay:10.37,2013-04-20 23:37:00,
2013-04-20 19:42:00,55.3,26.7,29.95,West,280,0.0,0.0,33,1.31,,SKC,99.99,WeatherDisplay:10.37,2013-04-20 23:42:00,
2013-04-20 19:47:00,55.3,26.7,29.96,NNE,16,0.0,0.0,33,1.31,,SKC,99.99,WeatherDisplay:10.37,2013-04-20 23:47:00,
2013-04-20 19:52:00,55.3,26.7,29.97,North,0,0.0,0.0,33,1.31,,SKC,99.99,WeatherDisplay:10.37,2013-04-20 23:52:00,
2013-04-20 19:57:00,55.3,26.7,29.97,North,0,0.0,0.0,33,1.31,,SKC,99.99,WeatherDisplay:10.37,2013-04-20 23:57:00,
2013-04-20 20:02:00,55.3,26.7,29.97,North,0,0.0,0.0,33,1.31,,SKC,99.99,WeatherDisplay:10.37,2013-04-21 00:02:00,
2013-04-20 20:07:00,55.3,26.7,29.97,North,0,0.0,0.0,33,1.31,,SKC,99.99,WeatherDisplay:10.37,2013-04-21 00:07:00,
2013-04-20 20:12:00,55.3,26.7,29.98,North,0,0.0,0.0,33,0.79,,SKC,99.99,WeatherDisplay:10.37,2013-04-21 00:12:00,
2013-04-20 20:17:00,55.3,26.7,29.98,North,0,0.0,0.0,33,0.79,,SKC,99.99,WeatherDisplay:10.37,2013-04-21 00:17:00,
2013-04-20 20:22:00,55.3,26.7,29.99,North,0,0.0,0.0,33,0.79,,SKC,99.99,WeatherDisplay:10.37,2013-04-21 00:22:00,
2013-04-20 20:27:00,55.3,26.7,29.99,North,0,0.0,0.0,33,0.79,,SKC,99.99,WeatherDisplay:10.37,2013-04-21 00:27:00,
2013-04-20 20:32:00,55.3,26.7,29.99,North,0,0.0,0.0,33,0.24,,SKC,99.99,WeatherDisplay:10.37,2013-04-21 00:32:00,
2013-04-20 20:37:00,55.3,26.7,30.00,North,0,0.0,0.0,33,0.00,,SKC,99.99,WeatherDisplay:10.37,2013-04-21 00:37:00,
2013-04-20 20:42:00,55.3,26.7,30.01,North,0,0.0,0.0,33,0.00,,SKC,99.99,WeatherDisplay:10.37,2013-04-21 00:42:00,
2013-04-20 20:47:00,55.3,26.7,30.01,North,0,0.0,0.0,33,0.00,,SKC,99.99,WeatherDisplay:10.37,2013-04-21 00:47:00,
2013-04-20 20:52:00,55.3,26.7,30.02,NNW,337,0.0,0.0,33,0.00,,SKC,99.99,WeatherDisplay:10.37,2013-04-21 00:52:00,
2013-04-20 20:57:00,55.3,26.7,30.02,NNW,337,0.0,0.0,33,0.00,,SKC,99.99,WeatherDisplay:10.37,2013-04-21 00:57:00,
2013-04-20 21:02:00,55.3,26.7,30.02,NW,326,0.0,0.0,33,0.00,,SKC,99.99,WeatherDisplay:10.37,2013-04-21 01:02:00,
2013-04-20 21:07:00,55.3,26.7,30.03,NW,326,0.0,0.0,33,0.00,CLR,SKC,99.99,WeatherDisplay:10.37,2013-04-21 01:07:00,
2013-04-20 21:12:00,55.3,26.7,30.04,NW,326,0.0,0.0,33,0.00,CLR,SKC,99.99,WeatherDisplay:10.37,2013-04-21 01:12:00,
2013-04-20 21:17:00,55.3,26.7,30.05,NNE,14,0.0,0.0,33,0.00,CLR,SKC,99.99,WeatherDisplay:10.37,2013-04-21 01:17:00,
2013-04-20 21:22:00,55.3,26.7,30.05,North,0,0.0,0.0,33,0.00,CLR,SKC,99.99,WeatherDisplay:10.37,2013-04-21 01:22:00,
2013-04-20 21:27:00,55.3,26.7,30.06,North,0,0.0,0.0,33,0.00,CLR,SKC,99.99,WeatherDisplay:10.37,2013-04-21 01:27:00,
2013-04-20 21:32:00,49.8,27.0,30.06,North,1,1.1,1.1,41,0.00,CLR,SKC,99.99,WeatherDisplay:10.37,2013-04-21 01:32:00,
2013-04-20 21:37:00,49.8,27.6,30.06,ENE,76,3.5,3.5,42,1.11,RA,SKC,99.99,WeatherDisplay:10.37,2013-04-21 01:37:00,
2013-04-20 21:42:00,49.6,26.8,30.06,NNW,347,3.5,0.0,41,2.18,RA,SKC,99.99,WeatherDisplay:10.37,2013-04-21 01:42:00,
2013-04-20 21:47:00,49.6,26.8,30.07,NNW,328,0.0,0.0,41,2.62,RA,SKC,99.99,WeatherDisplay:10.37,2013-04-21 01:47:00,
2013-04-20 21:52:00,49.4,27.8,30.08,NNW,340,2.0,2.0,43,2.74,RA,SKC,99.99,WeatherDisplay:10.37,2013-04-21 01:52:00,
2013-04-20 21:57:00,49.2,28.7,30.08,North,352,2.3,2.3,45,3.33,RA,SKC,99.99,WeatherDisplay:10.37,2013-04-21 01:57:00,
2013-04-20 22:02:00,48.9,28.5,30.09,NW,322,4.6,0.0,45,3.33,CLR,SKC,99.99,WeatherDisplay:10.37,2013-04-21 02:02:00,
2013-04-20 22:07:00,48.5,28.1,30.09,NNW,328,1.1,1.1,45,4.05,RA,SKC,99.99,WeatherDisplay:10.37,2013-04-21 02:07:00,
2013-04-20 22:12:00,48.2,28.4,30.10,North,352,2.3,2.3,46,4.05,CLR,SKC,99.99,WeatherDisplay:10.37,2013-04-21 02:12:00,
2013-04-20 22:17:00,47.7,28.4,30.10,North,6,4.6,4.6,47,4.89,RA,SKC,99.99,WeatherDisplay:10.37,2013-04-21 02:17:00,
2013-04-20 22:22:00,47.4,28.2,30.10,NW,325,2.3,2.3,47,6.16,RA,SKC,99.99,WeatherDisplay:10.37,2013-04-21 02:22:00,
2013-04-20 22:27:00,47.1,28.9,30.10,NW,325,1.1,1.1,49,6.16,CLR,SKC,99.99,WeatherDisplay:10.37,2013-04-21 02:27:00,
2013-04-20 22:32:00,46.7,28.5,30.11,NW,325,1.1,0.0,49,6.16,CLR,SKC,99.99,WeatherDisplay:10.37,2013-04-21 02:32:00,
2013-04-20 22:37:00,46.5,28.3,30.11,NNE,32,0.0,0.0,49,5.08,RA,SKC,99.99,WeatherDisplay:10.37,2013-04-21 02:37:00,
2013-04-20 22:42:00,46.2,28.1,30.11,North,349,1.1,1.1,49,4.01,CLR,SKC,99.99,WeatherDisplay:10.37,2013-04-21 02:42:00,
2013-04-20 22:47:00,45.7,27.6,30.12,North,356,3.5,3.5,49,3.57,CLR,SKC,99.99,WeatherDisplay:10.37,2013-04-21 02:47:00,
2013-04-20 22:52:00,45.2,27.2,30.13,North,0,1.1,1.1,49,3.45,CLR,SKC,99.99,WeatherDisplay:10.37,2013-04-21 02:52:00,
2013-04-20 22:57:00,44.9,27.4,30.13,NNW,347,2.3,2.3,50,2.86,CLR,SKC,99.99,WeatherDisplay:10.37,2013-04-21 02:57:00,
2013-04-20 23:02:00,44.5,27.0,30.13,North,350,2.3,0.0,50,3.73,RA,SKC,99.99,WeatherDisplay:10.37,2013-04-21 03:02:00,
2013-04-20 23:07:00,44.2,26.7,30.14,North,0,1.1,1.1,50,3.56,RA,SKC,99.99,WeatherDisplay:10.37,2013-04-21 03:07:00,
2013-04-20 23:12:00,43.9,26.4,30.14,NNW,344,2.3,2.3,50,4.36,RA,SKC,99.99,WeatherDisplay:10.37,2013-04-21 03:12:00,
2013-04-20 23:17:00,43.6,26.6,30.14,North,0,3.5,3.5,51,4.67,RA,SKC,99.99,WeatherDisplay:10.37,2013-04-21 03:17:00,
2013-04-20 23:22:00,43.5,26.6,30.15,NW,323,5.0,5.0,51,4.63,RA,SKC,99.99,WeatherDisplay:10.37,2013-04-21 03:22:00,
2013-04-20 23:27:00,43.2,26.7,30.15,NNE,28,2.0,2.0,52,5.03,RA,SKC,99.99,WeatherDisplay:10.37,2013-04-21 03:27:00,
2013-04-20 23:32:00,43.1,26.7,30.15,NNE,13,2.3,2.3,52,5.71,RA,SKC,99.99,WeatherDisplay:10.37,2013-04-21 03:32:00,
2013-04-20 23:37:00,42.8,26.4,30.15,North,11,2.3,2.3,52,5.68,CLR,SKC,99.99,WeatherDisplay:10.37,2013-04-21 03:37:00,
2013-04-20 23:42:00,42.3,25.9,30.16,North,353,0.0,0.0,52,5.99,RA,SKC,99.99,WeatherDisplay:10.37,2013-04-21 03:42:00,
2013-04-20 23:47:00,42.1,25.3,30.16,NNW,328,2.3,2.3,51,6.63,RA,SKC,99.99,WeatherDisplay:10.37,2013-04-21 03:47:00,
2013-04-20 23:52:00,41.9,25.1,30.17,North,0,2.3,2.3,51,6.71,RA,SKC,99.99,WeatherDisplay:10.37,2013-04-21 03:52:00,
2013-04-20 23:57:00,41.6,24.8,30.17,NNW,335,0.0,0.0,51,7.38,RA,SKC,99.99,WeatherDisplay:10.37,2013-04-21 03:57:00,